Time;durP1;ratioP1;P1;durP2;ratioP2;P2;SDS_P1;SDS_P2;PMS_P1;PMS_P2;Temp;Humidity;BMP_temperature;BMP_pressure;BME280_temperature;BME280_humidity;BME280_pressure;Samples;Min_cycle;Max_cycle;Signal;HPM_P1;HPM_P2
2023/10/10 00:01:05;;;;;;;16.85;2.95;;;;;;;13.77;47.37;94225.34;5102632;28;20032;-77
2023/10/10 00:03:32;;;;;;;9.23;2.83;;;;;;;13.82;47.26;94225.97;5102747;28;20016;-77
2023/10/10 00:05:59;;;;;;;8.82;2.60;;;;;;;13.77;48.13;94226.13;5102573;28;20036;-78
2023/10/10 00:08:34;;;;;;;8.98;3.50;;;;;;;13.78;47.31;94233.06;5102791;28;20022;-77
2023/10/10 00:11:03;;;;;;;14.80;3.63;;;;;;;13.79;47.62;94231.19;5102534;28;20069;-77
2023/10/10 00:13:29;;;;;;;7.35;2.72;;;;;;;13.73;46.71;94222.53;5102653;28;20023;-77
2023/10/10 00:15:58;;;;;;;10.13;3.03;;;;;;;13.80;47.08;94238.13;5103388;28;20065;-77
2023/10/10 00:18:25;;;;;;;7.53;3.05;;;;;;;13.82;47.95;94234.00;5106527;28;20035;-77
2023/10/10 00:21:06;;;;;;;8.48;2.90;;;;;;;13.79;48.29;94217.78;5106799;28;20043;-76
2023/10/10 00:23:44;;;;;;;7.80;3.08;;;;;;;13.81;47.83;94224.38;5088554;28;20074;-77
2023/10/10 00:26:19;;;;;;;9.07;2.92;;;;;;;13.87;47.69;94224.22;5106446;28;20024;-76
2023/10/10 00:28:46;;;;;;;9.30;2.88;;;;;;;13.88;48.26;94215.03;5106606;28;20028;-76
2023/10/10 00:31:17;;;;;;;9.02;2.83;;;;;;;13.89;48.65;94212.03;5106616;28;20041;-76
2023/10/10 00:33:50;;;;;;;14.63;2.88;;;;;;;13.90;48.06;94219.00;5106622;28;20047;-76
2023/10/10 00:36:23;;;;;;;9.20;2.58;;;;;;;13.90;47.59;94212.81;5106337;28;20279;-76
2023/10/10 00:39:22;;;;;;;10.90;3.30;;;;;;;13.96;47.65;94214.22;5106344;28;20040;-76
2023/10/10 00:41:54;;;;;;;13.55;2.90;;;;;;;13.96;47.42;94208.84;5106259;28;20027;-76
2023/10/10 00:44:22;;;;;;;15.98;3.15;;;;;;;13.96;47.49;94201.63;5106171;28;20027;-76
2023/10/10 00:46:55;;;;;;;10.05;3.08;;;;;;;13.99;47.76;94211.66;5106018;28;20055;-76
2023/10/10 00:49:24;;;;;;;13.32;3.65;;;;;;;14.10;49.53;94204.00;5088329;28;20015;-75
2023/10/10 00:51:54;;;;;;;10.10;3.13;;;;;;;14.27;49.26;94205.00;5106094;28;20016;-77
2023/10/10 00:56:55;;;;;;;11.45;4.57;;;;;;;14.63;48.17;94212.47;5106083;28;20020;-76
2023/10/10 01:02:06;;;;;;;10.33;3.17;;;;;;;14.56;48.43;94217.59;5106143;28;20027;-77
2023/10/10 01:04:38;;;;;;;8.55;3.05;;;;;;;14.59;50.27;94206.19;5087832;28;20058;-77
2023/10/10 01:07:03;;;;;;;12.82;2.72;;;;;;;15.02;50.33;94196.91;5105783;28;20024;-77
2023/10/10 01:09:52;;;;;;;12.02;2.50;;;;;;;15.49;49.40;94187.69;5087711;28;20050;-78
2023/10/10 01:12:22;;;;;;;18.90;2.63;;;;;;;15.99;48.09;94191.94;5105615;28;20048;-77
2023/10/10 01:14:54;;;;;;;10.60;2.30;;;;;;;16.37;46.78;94193.44;5106131;28;20191;-78
2023/10/10 01:17:20;;;;;;;19.80;3.05;;;;;;;16.61;46.37;94198.72;5105958;28;20020;-77
2023/10/10 01:19:46;;;;;;;10.95;2.03;;;;;;;16.84;45.61;94180.13;5105554;28;20094;-78
2023/10/10 01:22:22;;;;;;;6.13;2.13;;;;;;;16.96;45.26;94181.22;5105477;28;20020;-77
2023/10/10 01:24:54;;;;;;;8.57;2.35;;;;;;;17.06;44.88;94196.84;5105484;28;20026;-78
2023/10/10 01:27:22;;;;;;;19.17;2.30;;;;;;;17.14;44.62;94197.84;5105130;28;20019;-78
2023/10/10 01:30:16;;;;;;;16.45;2.97;;;;;;;17.15;44.39;94194.00;5105198;28;20030;-78
2023/10/10 01:32:38;;;;;;;11.20;2.80;;;;;;;17.22;44.19;94202.28;5104706;28;20034;-77
2023/10/10 01:35:15;;;;;;;8.73;2.15;;;;;;;17.20;44.31;94204.53;5105222;28;20020;-77
2023/10/10 01:37:41;;;;;;;4.47;1.55;;;;;;;17.21;44.72;94203.38;5105146;28;20322;-77
2023/10/10 01:40:15;;;;;;;11.55;2.15;;;;;;;17.19;44.74;94206.41;5105443;28;20338;-79
2023/10/10 01:42:47;;;;;;;8.88;2.35;;;;;;;17.25;44.64;94215.81;5104984;28;20325;-77
2023/10/10 01:45:18;;;;;;;10.02;2.60;;;;;;;17.24;44.91;94213.47;5103724;28;20031;-77
2023/10/10 01:47:56;;;;;;;17.58;3.28;;;;;;;17.25;44.71;94226.59;5087067;28;20330;-77
2023/10/10 01:50:21;;;;;;;6.32;2.00;;;;;;;17.22;45.15;94226.50;5086797;28;20023;-77
2023/10/10 01:52:50;;;;;;;15.48;2.58;;;;;;;17.23;45.18;94230.75;5105113;28;20035;-78
2023/10/10 01:55:17;;;;;;;8.55;2.25;;;;;;;17.19;44.96;94227.19;5104814;28;20027;-77
2023/10/10 01:57:42;;;;;;;6.90;1.77;;;;;;;17.25;44.79;94231.19;5104677;28;20019;-77
2023/10/10 02:00:26;;;;;;;6.80;2.10;;;;;;;17.24;44.95;94224.25;5104805;28;20016;-78
2023/10/10 02:02:53;;;;;;;9.43;1.88;;;;;;;17.20;44.88;94210.69;5104643;28;20118;-78
2023/10/10 02:05:52;;;;;;;9.70;3.10;;;;;;;17.18;45.10;94218.34;5104528;28;20039;-78
2023/10/10 02:08:16;;;;;;;;;;;;;;;17.17;45.22;94224.06;5101749;28;20271;-77
2023/10/10 02:10:46;;;;;;;5.70;1.70;;;;;;;17.03;45.63;94219.84;5086676;28;19936;-77
2023/10/10 02:13:12;;;;;;;9.05;2.10;;;;;;;17.01;46.09;94226.72;5104735;28;20019;-77
2023/10/10 02:15:39;;;;;;;9.70;2.28;;;;;;;16.99;46.35;94221.66;5104963;28;20084;-77
2023/10/10 02:18:12;;;;;;;10.82;1.88;;;;;;;16.99;45.97;94235.13;5104626;28;20024;-77
2023/10/10 02:23:23;;;;;;;12.50;2.90;;;;;;;17.00;46.22;94231.31;5104358;28;20031;-77
2023/10/10 02:25:49;;;;;;;8.48;2.95;;;;;;;16.96;46.19;94230.44;5104149;28;20036;-77
2023/10/10 02:30:45;;;;;;;8.85;2.13;;;;;;;16.88;46.07;94228.69;5104185;28;20047;-77
2023/10/10 02:35:55;;;;;;;9.70;2.22;;;;;;;16.73;46.54;94221.31;5104100;28;20034;-77
2023/10/10 02:38:31;;;;;;;7.43;2.53;;;;;;;16.71;47.10;94210.91;5103797;28;20059;-77
2023/10/10 02:41:13;;;;;;;7.82;1.95;;;;;;;16.70;46.50;94219.31;5102842;28;20027;-77
2023/10/10 02:46:47;;;;;;;11.18;2.88;;;;;;;16.61;46.48;94214.88;5103249;28;20061;-77
2023/10/10 02:49:22;;;;;;;8.48;2.60;;;;;;;16.56;46.30;94209.72;5102009;28;20011;-77
2023/10/10 02:51:55;;;;;;;13.85;2.58;;;;;;;16.46;47.00;94215.59;5103570;28;20048;-78
2023/10/10 02:54:28;;;;;;;12.45;2.53;;;;;;;16.44;47.26;94199.81;5103852;28;20047;-77
2023/10/10 02:56:58;;;;;;;4.60;2.15;;;;;;;16.51;47.47;94203.81;5103491;28;20020;-77
2023/10/10 02:59:31;;;;;;;13.00;2.17;;;;;;;16.52;48.09;94203.47;5085508;28;20024;-77
2023/10/10 03:01:57;;;;;;;8.63;1.83;;;;;;;16.50;48.29;94194.16;5103431;28;20024;-77
2023/10/10 03:04:52;;;;;;;7.35;1.98;;;;;;;16.54;48.49;94197.75;5103420;28;20020;-77
2023/10/10 03:07:09;;;;;;;5.38;1.92;;;;;;;16.51;48.02;94209.97;5103258;28;20035;-77
2023/10/10 03:09:42;;;;;;;10.25;2.38;;;;;;;16.38;48.32;94203.06;5103503;28;20112;-77
2023/10/10 03:12:17;;;;;;;10.68;2.65;;;;;;;16.21;49.16;94196.06;5103359;28;20026;-77
2023/10/10 03:14:53;;;;;;;6.97;1.50;;;;;;;16.30;49.85;94198.59;5103334;28;20035;-77
2023/10/10 03:17:43;;;;;;;2.95;1.55;;;;;;;16.33;50.55;94197.94;5103243;28;20091;-77
2023/10/10 03:28:41;;;;;;;8.60;1.52;;;;;;;16.38;50.94;94200.38;5103328;28;20028;-76
2023/10/10 03:36:23;;;;;;;5.95;1.75;;;;;;;16.53;52.07;94215.03;5103279;28;20328;-77
2023/10/10 05:25:23;;;;;;;11.23;2.53;;;;;;;15.91;55.57;94295.78;5105715;28;20035;-77
2023/10/10 05:27:52;;;;;;;13.43;2.95;;;;;;;15.91;55.55;94308.44;5105529;28;20024;-79
2023/10/10 05:30:25;;;;;;;9.23;3.33;;;;;;;15.91;55.87;94314.59;5105393;28;20023;-73
2023/10/10 05:33:01;;;;;;;16.42;2.85;;;;;;;15.95;55.86;94317.41;5105286;28;20074;-74
2023/10/10 05:35:33;;;;;;;9.88;2.72;;;;;;;15.98;56.05;94304.06;5105006;28;20091;-74
2023/10/10 05:38:04;;;;;;;7.22;2.83;;;;;;;15.95;55.89;94318.19;5104904;28;20055;-74
2023/10/10 05:40:33;;;;;;;8.20;2.63;;;;;;;15.95;56.36;94318.19;5086917;28;20042;-74
2023/10/10 05:43:02;;;;;;;12.25;2.80;;;;;;;15.93;55.99;94325.78;5104960;28;20091;-74
2023/10/10 05:45:29;;;;;;;9.65;2.85;;;;;;;15.98;55.89;94316.75;5104849;28;20323;-74
2023/10/10 05:47:54;;;;;;;8.57;2.58;;;;;;;15.99;55.79;94312.91;5105234;28;20027;-74
2023/10/10 05:50:22;;;;;;;6.68;2.53;;;;;;;16.07;55.94;94328.16;5104843;28;20212;-74
2023/10/10 05:52:48;;;;;;;12.65;2.75;;;;;;;16.03;56.19;94340.69;5105065;28;20095;-74
2023/10/10 05:55:14;;;;;;;10.32;2.55;;;;;;;16.02;56.26;94323.78;5104602;28;20103;-74
2023/10/10 05:57:41;;;;;;;9.63;2.55;;;;;;;16.08;56.44;94318.19;5104666;28;20107;-74
2023/10/10 06:00:13;;;;;;;12.18;2.67;;;;;;;16.04;56.76;94336.91;5104660;28;20028;-74
2023/10/10 06:02:42;;;;;;;8.85;2.30;;;;;;;16.02;57.18;94333.78;5104752;28;20053;-79
2023/10/10 06:05:09;;;;;;;7.10;2.00;;;;;;;16.08;57.17;94323.56;5105140;28;20373;-80
2023/10/10 06:07:37;;;;;;;10.70;3.13;;;;;;;16.17;57.06;94308.88;5106468;28;20322;-79
2023/10/10 06:10:06;;;;;;;9.13;2.85;;;;;;;16.27;56.77;94306.88;5104642;28;20016;-78
2023/10/10 06:12:33;;;;;;;10.10;2.85;;;;;;;16.31;57.04;94318.53;5104444;28;20020;-78
2023/10/10 06:15:05;;;;;;;6.22;2.45;;;;;;;16.28;56.85;94298.44;5104759;28;20326;-79
2023/10/10 06:17:33;;;;;;;10.73;2.27;;;;;;;16.30;56.90;94311.56;5103633;28;20115;-80
2023/10/10 06:20:00;;;;;;;7.40;2.30;;;;;;;16.28;56.40;94308.44;5104526;28;20630;-81
2023/10/10 06:22:25;;;;;;;9.68;2.42;;;;;;;16.32;56.46;94320.84;5104559;28;20038;-80
2023/10/10 06:24:57;;;;;;;10.77;3.13;;;;;;;16.33;56.46;94316.28;5104650;28;20024;-79
2023/10/10 06:27:28;;;;;;;;;;;;;;;16.30;56.36;94317.72;5105164;28;20024;-79
2023/10/10 06:29:58;;;;;;;8.52;3.40;;;;;;;16.25;56.76;94304.50;5104234;28;19904;-80
2023/10/10 06:32:30;;;;;;;13.77;3.13;;;;;;;16.28;56.42;94309.19;5086172;28;20405;-79
2023/10/10 06:37:41;;;;;;;10.77;2.33;;;;;;;16.31;57.09;94316.63;5103393;28;20112;-78
2023/10/10 06:40:08;;;;;;;7.25;2.47;;;;;;;16.28;56.81;94308.44;5103818;28;20036;-78
2023/10/10 06:42:38;;;;;;;6.47;2.30;;;;;;;16.37;56.51;94322.56;5104110;28;20062;-78
2023/10/10 06:45:08;;;;;;;9.15;3.17;;;;;;;16.51;56.73;94319.50;5103732;28;20044;-78
2023/10/10 06:47:43;;;;;;;8.18;2.15;;;;;;;16.68;55.79;94326.53;5083635;28;20028;-78
2023/10/10 06:50:12;;;;;;;12.73;2.70;;;;;;;16.74;55.13;94335.94;5102020;28;20234;-78
2023/10/10 06:52:38;;;;;;;5.45;2.45;;;;;;;16.85;55.47;94342.44;5102232;28;20023;-78
2023/10/10 06:55:10;;;;;;;9.77;2.92;;;;;;;16.84;55.09;94328.19;5084117;28;20012;-78
2023/10/10 06:57:41;;;;;;;8.10;3.00;;;;;;;16.76;55.34;94337.16;5084016;28;20019;-79
2023/10/10 07:02:41;;;;;;;10.13;2.63;;;;;;;16.75;55.76;94354.44;5103715;28;20271;-79
2023/10/10 07:05:15;;;;;;;6.32;2.30;;;;;;;16.75;55.82;94357.13;5104287;28;20020;-78
2023/10/10 07:07:40;;;;;;;10.82;3.42;;;;;;;16.72;56.33;94351.66;5103939;28;20330;-78
2023/10/10 07:10:09;;;;;;;5.55;2.47;;;;;;;16.77;56.04;94346.00;5103876;28;20028;-78
2023/10/10 07:12:35;;;;;;;10.98;2.70;;;;;;;16.75;56.13;94354.44;5103921;28;20024;-78
2023/10/10 07:15:06;;;;;;;10.90;2.83;;;;;;;16.80;55.87;94335.34;5103945;28;20070;-78
2023/10/10 07:17:32;;;;;;;7.38;2.50;;;;;;;16.83;55.91;94339.28;5085417;28;20031;-78
2023/10/10 07:22:33;;;;;;;5.95;2.92;;;;;;;16.96;56.01;94335.47;5102783;28;20043;-78
2023/10/10 07:25:31;;;;;;;12.43;2.58;;;;;;;16.96;55.81;94345.44;5102279;28;20260;-78
2023/10/10 07:28:00;;;;;;;16.58;2.80;;;;;;;16.94;55.71;94340.41;5102844;28;20341;-78
2023/10/10 07:30:34;;;;;;;12.93;3.90;;;;;;;16.81;56.17;94346.94;5102957;28;20363;-77
2023/10/10 07:33:02;;;;;;;10.90;2.72;;;;;;;16.80;56.45;94388.41;5102938;28;20028;-78
2023/10/10 07:35:28;;;;;;;10.57;3.50;;;;;;;16.63;56.90;94357.16;5084974;28;20016;-77
2023/10/10 07:37:58;;;;;;;14.02;3.60;;;;;;;16.59;57.33;94356.28;5102907;28;20032;-77
2023/10/10 07:40:37;;;;;;;15.68;3.03;;;;;;;16.67;57.10;94359.94;5102875;28;20077;-78
2023/10/10 07:43:03;;;;;;;17.48;3.33;;;;;;;16.76;56.80;94352.53;5103076;28;20016;-78
2023/10/10 07:45:33;;;;;;;18.55;3.08;;;;;;;16.83;56.36;94360.84;5084586;28;20318;-77
2023/10/10 07:50:35;;;;;;;13.70;3.28;;;;;;;16.95;56.38;94363.50;5102996;28;20043;-77
2023/10/10 07:53:06;;;;;;;8.80;2.95;;;;;;;16.83;56.62;94360.84;5103010;28;20020;-77
2023/10/10 07:58:23;;;;;;;8.43;3.10;;;;;;;16.87;56.91;94366.34;5102441;28;20043;-77
2023/10/10 08:00:52;;;;;;;16.10;3.47;;;;;;;17.01;56.86;94355.97;5102957;28;20279;-77
2023/10/10 08:03:20;;;;;;;13.73;3.35;;;;;;;17.03;56.49;94367.97;5103038;28;20020;-77
2023/10/10 08:05:50;;;;;;;14.60;2.88;;;;;;;17.12;56.31;94356.28;5102806;28;20032;-77
2023/10/10 08:08:17;;;;;;;10.27;3.72;;;;;;;17.15;55.55;94366.38;5102831;28;20020;-77
2023/10/10 08:10:49;;;;;;;10.25;3.53;;;;;;;17.17;55.71;94359.50;5101538;28;20019;-76
2023/10/10 08:13:15;;;;;;;;;;;;;;;17.20;55.67;94369.59;5103284;28;20064;-77
2023/10/10 08:15:56;;;;;;;10.07;3.72;;;;;;;17.15;56.28;94361.75;5102969;28;19908;-77
2023/10/10 08:21:13;;;;;;;16.55;3.95;;;;;;;16.98;56.27;94389.75;5102926;28;20017;-78
2023/10/10 08:23:50;;;;;;;16.10;4.03;;;;;;;16.80;56.49;94388.41;5085058;28;20039;-78
2023/10/10 08:27:09;;;;;;;10.82;3.28;;;;;;;16.63;57.39;94384.84;5084907;28;20020;-78
2023/10/10 08:29:09;;;;;;;8.25;3.22;;;;;;;16.69;57.81;94384.59;5096731;28;20032;-78
2023/10/10 08:31:40;;;;;;;11.77;3.85;;;;;;;16.65;57.25;94388.00;5102632;28;20024;-78
2023/10/10 08:34:08;;;;;;;20.45;5.70;;;;;;;16.59;57.57;94378.56;5084763;28;20020;-77
2023/10/10 08:36:34;;;;;;;11.55;3.13;;;;;;;16.63;57.44;94379.47;5084611;28;20085;-77
2023/10/10 08:39:25;;;;;;;11.50;3.65;;;;;;;16.66;57.66;94372.63;5105015;28;20048;-77
2023/10/10 08:41:52;;;;;;;8.45;3.95;;;;;;;16.79;57.47;94381.44;5106093;28;20034;-77
2023/10/10 08:44:18;;;;;;;12.88;3.72;;;;;;;16.84;57.00;94390.13;5106336;28;20031;-76
2023/10/10 08:46:46;;;;;;;12.85;3.95;;;;;;;16.87;57.54;94390.56;5106177;28;20257;-78
2023/10/10 08:49:13;;;;;;;11.15;3.90;;;;;;;16.81;57.36;94388.13;5088436;28;20100;-77
2023/10/10 08:51:41;;;;;;;12.35;3.90;;;;;;;16.82;57.62;94391.59;5106256;28;20035;-76
2023/10/10 08:54:10;;;;;;;13.52;3.25;;;;;;;16.80;57.61;94401.88;5106390;28;20028;-77
2023/10/10 08:56:53;;;;;;;14.40;4.72;;;;;;;16.76;57.77;94392.91;5088317;28;20031;-77
2023/10/10 08:59:19;;;;;;;17.17;4.20;;;;;;;16.73;57.64;94396.25;5105999;28;20032;-76
2023/10/10 09:01:45;;;;;;;13.27;3.47;;;;;;;16.66;57.74;94394.16;5087880;28;20086;-77
2023/10/10 09:04:19;;;;;;;7.60;3.00;;;;;;;16.53;58.11;94387.22;5105948;28;20020;-77
2023/10/10 09:06:45;;;;;;;12.15;3.67;;;;;;;16.54;57.94;94408.41;5087949;28;20137;-77
2023/10/10 09:11:56;;;;;;;13.90;3.90;;;;;;;16.45;58.64;94399.66;5105726;28;20019;-77
2023/10/10 09:14:37;;;;;;;14.23;4.28;;;;;;;16.44;58.50;94403.47;5087655;28;20314;-77
2023/10/10 09:17:06;;;;;;;18.23;4.18;;;;;;;16.54;58.52;94400.31;5105773;28;20044;-77
2023/10/10 09:19:32;;;;;;;12.20;3.17;;;;;;;16.64;57.98;94401.78;5105550;28;20023;-77
2023/10/10 09:22:01;;;;;;;10.15;2.80;;;;;;;16.66;57.96;94399.53;5105792;28;20257;-77
2023/10/10 09:24:28;;;;;;;9.10;3.72;;;;;;;16.76;57.96;94393.69;5105811;28;20086;-78
2023/10/10 09:27:10;;;;;;;10.40;2.80;;;;;;;16.74;57.24;94395.94;5105713;28;20051;-77
2023/10/10 09:29:43;;;;;;;8.00;3.30;;;;;;;16.83;57.18;94385.88;5106041;28;20118;-78
2023/10/10 09:32:14;;;;;;;12.73;3.30;;;;;;;16.96;57.39;94397.38;5105779;28;20030;-78
2023/10/10 09:34:42;;;;;;;12.65;2.95;;;;;;;17.05;57.00;94394.56;5105492;28;20028;-78
2023/10/10 09:37:10;;;;;;;7.25;2.97;;;;;;;17.12;56.37;94392.09;5105436;28;20027;-77
2023/10/10 09:39:37;;;;;;;9.32;3.35;;;;;;;17.19;56.62;94397.66;5105128;28;20103;-77
2023/10/10 09:42:27;;;;;;;10.25;3.13;;;;;;;17.22;56.37;94386.22;5105219;28;20331;-77
2023/10/10 09:52:49;;;;;;;11.65;2.03;;;;;;;17.38;55.00;94372.81;5104953;28;20024;-76
2023/10/10 10:03:31;;;;;;;8.13;2.08;;;;;;;17.55;55.34;94381.72;5104599;28;20271;-77
2023/10/10 10:09:16;;;;;;;8.40;2.72;;;;;;;17.69;54.76;94374.00;5104891;28;20016;-77
2023/10/10 10:12:08;;;;;;;17.92;3.08;;;;;;;17.69;54.30;94378.59;5104284;28;20024;-77
2023/10/10 10:14:59;;;;;;;5.97;2.13;;;;;;;17.63;54.44;94375.38;5104469;28;20026;-76
2023/10/10 10:17:49;;;;;;;10.13;2.40;;;;;;;17.61;54.88;94378.41;5103566;28;20030;-77
2023/10/10 10:20:25;;;;;;;5.45;1.85;;;;;;;17.56;54.64;94370.56;5104999;28;20027;-76
2023/10/10 10:22:54;;;;;;;9.68;2.30;;;;;;;17.60;55.10;94367.97;5104753;28;20036;-76
2023/10/10 10:25:25;;;;;;;4.45;2.03;;;;;;;17.70;55.48;94358.59;5086728;28;20016;-76
2023/10/10 10:28:00;;;;;;;8.45;2.83;;;;;;;17.75;54.66;94371.84;5104231;28;20023;-77
2023/10/10 10:32:58;;;;;;;5.43;2.05;;;;;;;17.91;54.14;94369.16;5104227;28;20259;-77
2023/10/10 10:35:47;;;;;;;6.88;2.47;;;;;;;17.86;53.80;94356.72;5103127;28;20020;-77
2023/10/10 10:38:13;;;;;;;11.85;2.10;;;;;;;17.81;54.21;94357.75;5091661;28;20242;-77
2023/10/10 10:43:15;;;;;;;4.13;1.88;;;;;;;17.69;54.55;94352.44;5104250;28;20061;-76
2023/10/10 10:45:51;;;;;;;8.05;2.50;;;;;;;17.62;54.66;94352.22;5104141;28;20103;-76
2023/10/10 10:48:30;;;;;;;9.18;2.05;;;;;;;17.60;54.45;94354.50;5104300;28;20256;-76
2023/10/10 10:51:32;;;;;;;5.85;2.20;;;;;;;17.52;54.80;94350.81;5103894;28;20030;-77
2023/10/10 10:53:58;;;;;;;7.10;2.95;;;;;;;17.51;54.41;94346.56;5103377;28;20032;-77
2023/10/10 11:01:23;;;;;;;6.45;2.33;;;;;;;17.55;54.52;94352.06;5103040;28;20049;-77
2023/10/10 11:03:53;;;;;;;8.98;2.20;;;;;;;17.43;54.71;94347.50;5103774;28;20051;-77
2023/10/10 11:06:20;;;;;;;8.65;2.47;;;;;;;17.48;54.29;94346.47;5103573;28;20252;-77
2023/10/10 11:11:43;;;;;;;4.70;2.13;;;;;;;17.45;54.52;94347.94;5103707;28;20024;-76
2023/10/10 11:14:10;;;;;;;14.60;3.53;;;;;;;17.52;54.11;94348.13;5102927;28;20050;-78
2023/10/10 11:16:45;;;;;;;8.20;2.17;;;;;;;17.54;53.83;94340.47;5085579;28;20207;-77
2023/10/10 11:21:53;;;;;;;8.15;2.97;;;;;;;17.51;53.47;94343.09;5103596;28;20027;-78
2023/10/10 11:24:24;;;;;;;9.63;2.60;;;;;;;17.54;53.38;94353.94;5103220;28;20210;-78
2023/10/10 11:29:47;;;;;;;9.57;2.80;;;;;;;17.60;53.52;94343.72;5103604;28;20199;-78
2023/10/10 11:32:29;;;;;;;9.52;2.83;;;;;;;17.60;52.69;94343.72;5103236;28;20076;-78
2023/10/10 11:35:17;;;;;;;6.97;2.95;;;;;;;17.67;52.47;94341.22;5103418;28;20110;-78
2023/10/10 11:37:58;;;;;;;17.58;3.25;;;;;;;17.79;51.96;94351.94;5084954;28;20027;-77
2023/10/10 11:42:57;;;;;;;13.25;2.78;;;;;;;17.88;51.79;94351.00;5103267;28;20028;-77
2023/10/10 11:45:26;;;;;;;14.45;3.90;;;;;;;17.89;51.98;94334.47;5103119;28;20028;-77
2023/10/10 11:47:54;;;;;;;7.00;2.28;;;;;;;17.92;51.86;94344.56;5103159;28;20024;-78
2023/10/10 11:50:29;;;;;;;10.88;3.33;;;;;;;17.89;51.71;94344.47;5085442;28;20028;-77
2023/10/10 11:53:01;;;;;;;17.30;3.15;;;;;;;17.75;52.38;94340.25;5103150;28;20047;-78
2023/10/10 11:55:28;;;;;;;5.97;3.15;;;;;;;17.79;52.67;94334.97;5102924;28;20168;-77
2023/10/10 11:57:58;;;;;;;13.00;2.80;;;;;;;17.80;52.68;94337.28;5102969;28;20090;-77
2023/10/10 12:00:42;;;;;;;14.27;3.58;;;;;;;17.79;52.72;94338.44;5084814;28;20024;-78
2023/10/10 12:03:34;;;;;;;5.50;2.38;;;;;;;17.91;52.98;94337.63;5103130;28;20027;-78
2023/10/10 12:06:00;;;;;;;7.75;2.35;;;;;;;17.88;52.74;94338.28;5102711;28;20028;-78
2023/10/10 12:08:26;;;;;;;7.47;2.40;;;;;;;17.84;52.43;94340.91;5102893;28;20126;-78
2023/10/10 12:11:19;;;;;;;15.35;3.75;;;;;;;17.82;52.51;94335.03;5103045;28;20016;-78
2023/10/10 12:13:44;;;;;;;8.77;3.00;;;;;;;17.82;52.63;94336.97;5106115;28;20028;-78
2023/10/10 12:16:12;;;;;;;9.30;2.60;;;;;;;17.78;52.72;94328.00;5107024;28;20318;-77
2023/10/10 12:18:52;;;;;;;10.65;2.22;;;;;;;17.77;52.48;94331.84;5107195;28;20020;-77
2023/10/10 12:21:20;;;;;;;10.18;2.17;;;;;;;17.81;52.61;94336.19;5106999;28;20024;-77
2023/10/10 12:23:55;;;;;;;17.88;2.70;;;;;;;17.86;52.60;94331.69;5107222;28;20027;-77
2023/10/10 12:26:22;;;;;;;14.95;2.35;;;;;;;17.88;52.27;94337.53;5105498;28;20046;-78
2023/10/10 12:28:48;;;;;;;8.23;2.65;;;;;;;17.88;52.21;94326.72;5106788;28;20176;-77
2023/10/10 12:31:17;;;;;;;12.20;2.28;;;;;;;17.78;51.86;94341.47;5106825;28;20028;-78
2023/10/10 12:33:48;;;;;;;13.52;2.85;;;;;;;17.80;51.66;94342.69;5106635;28;20026;-78
2023/10/10 12:36:15;;;;;;;11.25;2.80;;;;;;;17.78;52.40;94334.16;5105318;28;20020;-78
2023/10/10 12:38:41;;;;;;;10.02;2.88;;;;;;;17.83;52.22;94339.34;5106301;28;20275;-78
2023/10/10 12:41:11;;;;;;;14.68;2.88;;;;;;;17.88;51.96;94349.09;5106400;28;20036;-78
2023/10/10 12:43:37;;;;;;;7.78;2.78;;;;;;;17.81;51.50;94338.88;5088606;28;20339;-78
2023/10/10 12:46:04;;;;;;;16.33;3.42;;;;;;;17.82;51.99;94345.81;5106531;28;20095;-78
2023/10/10 12:48:31;;;;;;;8.93;2.33;;;;;;;17.85;52.30;94344.41;5106379;28;20030;-78
2023/10/10 12:51:00;;;;;;;12.80;3.35;;;;;;;17.88;51.87;94345.63;5088254;28;20011;-77
2023/10/10 12:53:30;;;;;;;9.23;2.75;;;;;;;17.89;51.91;94339.06;5088452;28;20107;-77
2023/10/10 12:56:01;;;;;;;10.23;2.42;;;;;;;17.77;51.51;94339.94;5088202;28;20047;-77
2023/10/10 12:58:28;;;;;;;5.72;3.20;;;;;;;17.76;51.89;94339.13;5106426;28;20020;-78
2023/10/10 13:00:53;;;;;;;6.82;2.25;;;;;;;17.68;51.85;94334.69;5105750;28;20096;-78
2023/10/10 13:03:19;;;;;;;12.38;2.92;;;;;;;17.74;51.95;94333.28;5106177;28;20130;-77
2023/10/10 13:05:47;;;;;;;7.20;2.45;;;;;;;17.77;51.66;94334.53;5106269;28;20026;-77
2023/10/10 13:08:15;;;;;;;14.50;3.03;;;;;;;17.76;51.40;94341.81;5105951;28;20221;-77
2023/10/10 13:10:41;;;;;;;12.43;2.75;;;;;;;17.70;51.94;94334.34;5106166;28;20210;-77
2023/10/10 13:13:07;;;;;;;7.60;2.58;;;;;;;17.62;52.04;94334.16;5105869;28;20020;-77
2023/10/10 13:15:47;;;;;;;11.48;2.03;;;;;;;17.63;51.82;94337.66;5105868;28;20039;-78
2023/10/10 13:18:24;;;;;;;10.02;3.08;;;;;;;17.69;51.70;94336.25;5104500;28;20027;-77
2023/10/10 13:20:51;;;;;;;12.43;2.95;;;;;;;17.64;51.79;94333.81;5105653;28;20020;-78
2023/10/10 13:23:18;;;;;;;6.65;1.95;;;;;;;17.61;52.31;94337.22;5104776;28;20104;-77
2023/10/10 13:25:44;;;;;;;14.27;2.58;;;;;;;17.60;52.50;94327.53;5087373;28;20035;-77
2023/10/10 13:28:17;;;;;;;7.20;2.40;;;;;;;17.67;52.47;94333.13;5105473;28;20341;-77
2023/10/10 13:30:42;;;;;;;12.73;2.33;;;;;;;17.70;52.39;94332.41;5105412;28;20027;-77
2023/10/10 13:33:07;;;;;;;7.57;2.47;;;;;;;17.79;52.31;94335.75;5105609;28;20016;-77
2023/10/10 13:35:37;;;;;;;14.73;3.83;;;;;;;17.83;52.37;94342.03;5087077;28;20024;-77
2023/10/10 13:38:07;;;;;;;14.55;2.95;;;;;;;17.89;52.08;94337.19;5095988;28;20222;-77
2023/10/10 13:40:48;;;;;;;9.95;3.47;;;;;;;17.81;52.37;94338.09;5080332;28;20031;-77
2023/10/10 13:43:18;;;;;;;5.53;2.28;;;;;;;17.78;52.55;94341.47;5064892;28;20044;-76
2023/10/10 13:45:51;;;;;;;7.30;2.67;;;;;;;17.75;52.67;94340.25;5064706;28;20024;-76
2023/10/10 13:48:18;;;;;;;10.00;2.88;;;;;;;17.68;52.77;94342.75;5064721;28;20025;-76
2023/10/10 13:50:45;;;;;;;10.52;2.55;;;;;;;17.71;52.81;94327.81;5063692;28;20017;-77
2023/10/10 13:53:13;;;;;;;16.45;3.67;;;;;;;17.65;52.98;94341.56;5063736;28;20135;-79
2023/10/10 13:55:42;;;;;;;7.40;2.78;;;;;;;17.68;52.90;94337.38;5065206;28;20024;-77
2023/10/10 13:58:13;;;;;;;10.40;2.90;;;;;;;17.68;52.85;94334.69;5064753;28;20205;-77
2023/10/10 14:00:41;;;;;;;6.95;2.30;;;;;;;17.64;53.23;94342.66;5063528;28;20037;-76
2023/10/10 14:03:08;;;;;;;9.60;2.80;;;;;;;17.62;53.12;94344.16;5064790;28;20025;-77
2023/10/10 14:05:36;;;;;;;5.32;2.60;;;;;;;17.64;53.14;94339.19;5064392;28;20024;-76
2023/10/10 14:08:03;;;;;;;6.82;2.45;;;;;;;17.69;53.51;94335.47;5080061;28;20075;-76
2023/10/10 14:10:41;;;;;;;5.90;2.05;;;;;;;17.67;53.21;94340.41;5064372;28;20045;-76
2023/10/10 14:13:19;;;;;;;8.82;3.60;;;;;;;17.66;53.09;94334.25;5064535;28;20017;-78
2023/10/10 14:15:56;;;;;;;11.20;2.72;;;;;;;17.72;53.57;94345.56;5064371;28;20039;-76
2023/10/10 14:18:29;;;;;;;13.52;2.97;;;;;;;17.74;53.17;94341.38;5064437;28;20310;-77
2023/10/10 14:20:56;;;;;;;8.73;2.88;;;;;;;17.65;53.41;94346.16;5064180;28;20039;-78
2023/10/10 14:23:25;;;;;;;7.85;2.92;;;;;;;17.70;53.56;94347.81;5064218;28;20028;-77
2023/10/10 14:26:12;;;;;;;16.13;3.45;;;;;;;17.74;53.53;94356.78;5079768;28;20028;-77
2023/10/10 14:28:41;;;;;;;12.00;2.95;;;;;;;17.75;52.78;94361.84;5063059;28;20089;-77
2023/10/10 14:31:13;;;;;;;12.90;2.92;;;;;;;17.72;53.02;94359.81;5064184;28;20021;-78
2023/10/10 14:33:41;;;;;;;14.63;2.80;;;;;;;17.74;53.67;94360.25;5064654;28;20048;-78
2023/10/10 14:36:13;;;;;;;14.80;3.20;;;;;;;17.72;54.01;94362.50;5064262;28;20032;-77
2023/10/10 14:38:44;;;;;;;11.77;3.20;;;;;;;17.62;53.77;94365.72;5083935;28;20343;-77
2023/10/10 14:41:17;;;;;;;13.95;3.25;;;;;;;17.52;53.88;94367.00;5085958;28;20137;-77
2023/10/10 14:43:51;;;;;;;;;;;;;;;17.54;54.25;94369.34;5104810;28;20314;-77
2023/10/10 14:46:21;;;;;;;10.68;3.42;;;;;;;17.46;54.43;94371.06;5104130;28;19904;-78
2023/10/10 14:49:00;;;;;;;8.18;3.75;;;;;;;17.47;54.63;94377.25;5086100;28;20032;-77
2023/10/10 14:51:33;;;;;;;10.70;3.15;;;;;;;17.49;54.76;94372.31;5103974;28;20028;-77
2023/10/10 14:54:06;;;;;;;7.15;2.90;;;;;;;17.48;54.85;94384.19;5085887;28;20016;-77
2023/10/10 14:56:35;;;;;;;13.57;3.35;;;;;;;17.47;54.85;94385.34;5103918;28;20020;-77
2023/10/10 14:59:04;;;;;;;14.88;2.78;;;;;;;17.47;54.42;94382.66;5103929;28;20322;-77
2023/10/10 15:01:34;;;;;;;7.28;2.63;;;;;;;17.50;54.33;94384.63;5102617;28;20075;-77
2023/10/10 15:04:02;;;;;;;7.18;2.38;;;;;;;17.48;54.20;94384.19;5103809;28;20102;-77